Time;durP1;ratioP1;P1;durP2;ratioP2;P2;SDS_P1;SDS_P2;PMS_P1;PMS_P2;Temp;Humidity;BMP_temperature;BMP_pressure;BME280_temperature;BME280_humidity;BME280_pressure;Samples;Min_cycle;Max_cycle;Signal;HPM_P1;HPM_P2
2023/12/12 00:01:42;;;;;;;4.75;2.33;;;5.60;99.90;;;;;;5045563;28;20095;-78
2023/12/12 00:04:08;;;;;;;9.60;2.67;;;5.60;99.90;;;;;;5046838;28;20472;-78
2023/12/12 00:06:34;;;;;;;7.82;2.78;;;5.60;99.90;;;;;;5045788;28;20048;-78
2023/12/12 00:09:00;;;;;;;7.25;2.35;;;5.60;99.90;;;;;;5045266;28;20045;-79
2023/12/12 00:11:25;;;;;;;7.10;2.15;;;5.50;99.90;;;;;;5043504;28;20056;-79
2023/12/12 00:13:51;;;;;;;10.45;2.50;;;5.50;99.90;;;;;;5043008;28;20045;-79
2023/12/12 00:16:16;;;;;;;8.73;2.40;;;5.40;99.90;;;;;;5044661;28;20045;-79
2023/12/12 00:18:42;;;;;;;5.80;2.35;;;5.50;99.90;;;;;;5044557;28;20462;-78
2023/12/12 00:21:08;;;;;;;7.63;3.03;;;5.40;99.90;;;;;;5050088;28;20037;-79
2023/12/12 00:23:33;;;;;;;7.10;2.85;;;5.40;99.90;;;;;;5047481;28;20164;-78
2023/12/12 00:25:59;;;;;;;9.63;3.13;;;5.40;99.90;;;;;;5047717;28;20041;-79
2023/12/12 00:28:25;;;;;;;8.00;2.35;;;5.30;99.90;;;;;;5042012;28;20045;-80
2023/12/12 00:30:51;;;;;;;6.53;2.53;;;5.30;99.90;;;;;;5041565;28;20045;-78
2023/12/12 00:33:17;;;;;;;6.55;2.90;;;5.30;99.90;;;;;;5043372;28;20074;-78
2023/12/12 00:35:43;;;;;;;6.28;2.83;;;5.20;99.90;;;;;;5046189;28;20049;-79
2023/12/12 00:38:09;;;;;;;8.70;2.90;;;5.20;99.90;;;;;;5042782;28;20041;-78
2023/12/12 00:40:34;;;;;;;8.43;3.05;;;5.20;99.90;;;;;;5047324;28;20532;-78
2023/12/12 00:43:00;;;;;;;6.28;2.38;;;5.20;99.90;;;;;;5042890;28;20057;-78
2023/12/12 00:45:26;;;;;;;7.53;2.65;;;5.20;99.90;;;;;;5039998;28;20041;-78
2023/12/12 00:47:51;;;;;;;7.80;2.67;;;5.20;99.90;;;;;;5045998;28;20049;-78
2023/12/12 00:50:17;;;;;;;7.43;2.50;;;5.20;99.90;;;;;;5040648;28;20045;-78
2023/12/12 00:52:42;;;;;;;4.60;2.30;;;5.20;99.90;;;;;;5046082;28;20049;-78
2023/12/12 00:55:09;;;;;;;7.80;2.40;;;5.10;99.90;;;;;;5045202;28;20041;-79
2023/12/12 00:57:35;;;;;;;12.07;3.10;;;5.10;99.90;;;;;;5048307;28;20477;-78
2023/12/12 01:00:00;;;;;;;6.90;2.50;;;5.10;99.90;;;;;;5046494;28;20045;-78
2023/12/12 01:02:26;;;;;;;4.38;2.13;;;5.10;99.90;;;;;;5045138;28;20444;-78
2023/12/12 01:04:53;;;;;;;7.15;2.65;;;5.00;99.90;;;;;;5042217;28;20056;-79
2023/12/12 01:07:19;;;;;;;8.83;2.50;;;5.00;99.90;;;;;;5042488;28;20189;-79
2023/12/12 01:09:45;;;;;;;4.75;2.30;;;5.00;99.90;;;;;;5043260;28;20544;-78
2023/12/12 01:12:11;;;;;;;7.07;2.25;;;4.90;99.90;;;;;;5047155;28;20067;-79
2023/12/12 01:14:37;;;;;;;8.65;2.25;;;4.90;99.90;;;;;;5043009;28;20667;-79
2023/12/12 01:17:06;;;;;;;7.72;2.65;;;4.90;99.90;;;;;;5044647;28;20072;-79
2023/12/12 01:19:32;;;;;;;12.00;3.70;;;4.90;99.90;;;;;;5043057;28;20532;-79
2023/12/12 01:21:57;;;;;;;11.25;3.00;;;4.90;99.90;;;;;;5048138;28;20156;-79
2023/12/12 01:24:23;;;;;;;9.23;3.20;;;4.80;99.90;;;;;;5046518;28;20546;-79
2023/12/12 01:26:48;;;;;;;7.15;2.85;;;4.80;99.90;;;;;;5044938;28;20492;-79
2023/12/12 01:29:18;;;;;;;7.05;2.58;;;4.80;99.90;;;;;;5043032;28;20045;-79
2023/12/12 01:31:43;;;;;;;6.50;2.50;;;4.80;99.90;;;;;;5047849;28;20049;-78
2023/12/12 01:34:09;;;;;;;8.35;3.00;;;4.70;99.90;;;;;;5044286;28;20212;-79
2023/12/12 01:36:35;;;;;;;15.30;4.55;;;4.70;99.90;;;;;;5038362;28;20089;-78
2023/12/12 01:39:01;;;;;;;6.30;2.83;;;4.70;99.90;;;;;;5040336;28;20498;-79
2023/12/12 01:41:27;;;;;;;8.68;3.33;;;4.70;99.90;;;;;;5044831;28;20041;-78
2023/12/12 01:43:52;;;;;;;9.95;3.63;;;4.70;99.90;;;;;;5043888;28;20445;-78
2023/12/12 01:46:19;;;;;;;6.78;3.60;;;4.70;99.90;;;;;;5043494;28;20049;-79
2023/12/12 01:48:46;;;;;;;10.48;3.55;;;4.70;99.90;;;;;;5048744;28;20099;-79
2023/12/12 01:51:12;;;;;;;7.23;3.40;;;4.70;99.90;;;;;;5043334;28;20045;-79
2023/12/12 01:53:45;;;;;;;9.27;3.63;;;4.70;99.90;;;;;;5039660;28;20386;-79
2023/12/12 01:56:13;;;;;;;13.90;4.35;;;4.60;99.90;;;;;;5040290;28;20041;-79
2023/12/12 01:58:41;;;;;;;11.02;4.03;;;4.60;99.90;;;;;;5044636;28;20057;-78
2023/12/12 02:01:08;;;;;;;10.07;3.80;;;4.60;99.90;;;;;;5046957;28;20065;-79
2023/12/12 02:03:35;;;;;;;8.35;3.83;;;4.60;99.90;;;;;;5042909;28;20095;-78
2023/12/12 02:06:01;;;;;;;12.00;4.10;;;4.60;99.90;;;;;;5047421;28;20067;-78
2023/12/12 02:08:28;;;;;;;10.77;4.13;;;4.50;99.90;;;;;;5040733;28;20053;-78
2023/12/12 02:10:54;;;;;;;10.45;4.35;;;4.50;99.90;;;;;;5036801;28;20742;-78
2023/12/12 02:13:20;;;;;;;7.85;3.33;;;4.40;99.90;;;;;;5045954;28;20156;-78
2023/12/12 02:15:46;;;;;;;8.52;4.22;;;4.50;99.90;;;;;;5044401;28;20045;-78
2023/12/12 02:18:14;;;;;;;9.50;3.58;;;4.40;99.90;;;;;;5042540;28;20052;-79
2023/12/12 02:20:40;;;;;;;12.25;4.10;;;4.40;99.90;;;;;;5044845;28;20041;-79
2023/12/12 02:23:06;;;;;;;11.23;4.00;;;4.40;99.90;;;;;;5034908;28;20585;-79
2023/12/12 02:25:32;;;;;;;8.38;4.70;;;4.30;99.90;;;;;;5043530;28;20112;-79
2023/12/12 02:28:00;;;;;;;8.38;4.75;;;4.30;99.90;;;;;;5043591;28;20037;-79
2023/12/12 02:30:25;;;;;;;11.00;4.35;;;4.30;99.90;;;;;;5058755;28;20127;-78
2023/12/12 02:32:51;;;;;;;9.85;4.20;;;4.40;99.90;;;;;;5044649;28;20139;-79
2023/12/12 02:35:16;;;;;;;9.60;4.85;;;4.30;99.90;;;;;;5041060;28;20040;-79
2023/12/12 02:37:42;;;;;;;9.00;4.93;;;4.30;99.90;;;;;;5043977;28;20060;-78
2023/12/12 02:40:08;;;;;;;8.40;3.78;;;4.30;99.90;;;;;;5044659;28;20068;-78
2023/12/12 02:42:34;;;;;;;9.63;4.47;;;4.40;99.90;;;;;;5044383;28;20044;-79
2023/12/12 02:45:00;;;;;;;8.90;4.53;;;4.30;99.90;;;;;;5041273;28;20062;-78
2023/12/12 02:47:25;;;;;;;10.68;4.78;;;4.30;99.90;;;;;;5038848;28;20091;-79
2023/12/12 02:49:51;;;;;;;15.85;5.00;;;4.30;99.90;;;;;;5042675;28;20084;-79
2023/12/12 02:52:17;;;;;;;11.82;5.15;;;4.30;99.90;;;;;;5045837;28;20037;-79
2023/12/12 02:54:42;;;;;;;9.75;4.72;;;4.30;99.90;;;;;;5045375;28;20548;-79
2023/12/12 02:57:08;;;;;;;10.63;4.90;;;4.30;99.90;;;;;;5046513;28;20040;-78
2023/12/12 02:59:34;;;;;;;15.30;4.80;;;4.30;99.90;;;;;;5050000;28;20048;-78
2023/12/12 03:01:59;;;;;;;13.25;5.13;;;4.30;99.90;;;;;;5036918;28;20072;-79
2023/12/12 03:04:25;;;;;;;10.65;4.60;;;4.30;99.90;;;;;;5035096;28;20057;-78
2023/12/12 03:06:51;;;;;;;10.23;4.40;;;4.20;99.90;;;;;;5043926;28;20036;-78
2023/12/12 03:09:16;;;;;;;13.60;5.55;;;4.20;99.90;;;;;;5045393;28;20055;-79
2023/12/12 03:11:42;;;;;;;12.43;5.28;;;4.20;99.90;;;;;;5051059;28;20041;-79
2023/12/12 03:14:08;;;;;;;10.18;5.53;;;4.20;99.90;;;;;;5048013;28;20037;-79
2023/12/12 03:16:33;;;;;;;11.95;4.97;;;4.20;99.90;;;;;;5039029;28;20053;-79
2023/12/12 03:18:59;;;;;;;13.77;5.72;;;4.20;99.90;;;;;;5042922;28;20084;-79
2023/12/12 03:21:24;;;;;;;15.90;5.93;;;4.20;99.90;;;;;;5046592;28;20611;-79
2023/12/12 03:23:50;;;;;;;15.95;6.68;;;4.20;99.90;;;;;;5045871;28;20043;-79
2023/12/12 03:26:16;;;;;;;16.95;6.78;;;4.30;99.90;;;;;;5048791;28;20455;-79
2023/12/12 03:28:41;;;;;;;12.65;6.22;;;4.30;99.90;;;;;;5047027;28;20085;-79
2023/12/12 03:31:08;;;;;;;18.83;7.10;;;4.30;99.90;;;;;;5050329;28;20060;-79
2023/12/12 03:33:33;;;;;;;19.23;6.22;;;4.30;99.90;;;;;;5051270;28;20296;-78
2023/12/12 03:35:59;;;;;;;12.10;5.13;;;4.30;99.90;;;;;;5043508;28;20484;-79
2023/12/12 03:38:25;;;;;;;10.70;5.72;;;4.30;99.90;;;;;;5049976;28;20072;-79
2023/12/12 03:40:51;;;;;;;14.07;5.40;;;4.30;99.90;;;;;;5048647;28;20638;-78
2023/12/12 03:43:16;;;;;;;13.00;6.03;;;4.30;99.90;;;;;;5045220;28;20041;-78
2023/12/12 03:45:42;;;;;;;12.93;6.40;;;4.30;99.90;;;;;;5035407;28;20053;-79
2023/12/12 03:48:08;;;;;;;13.05;5.60;;;4.30;99.90;;;;;;5050657;28;20484;-79
2023/12/12 03:50:34;;;;;;;15.48;6.47;;;4.30;99.90;;;;;;5041265;28;20051;-79
2023/12/12 03:53:00;;;;;;;14.13;6.43;;;4.30;99.90;;;;;;5041074;28;20069;-78
2023/12/12 03:55:25;;;;;;;17.80;5.97;;;4.30;99.90;;;;;;5058197;28;20124;-79
2023/12/12 03:57:51;;;;;;;16.50;5.85;;;4.30;99.90;;;;;;5046016;28;20127;-79
2023/12/12 04:00:17;;;;;;;15.90;6.10;;;4.30;99.90;;;;;;5046844;28;20049;-79
2023/12/12 04:02:42;;;;;;;17.95;5.97;;;4.30;99.90;;;;;;5045347;28;20464;-79
2023/12/12 04:05:11;;;;;;;10.55;5.95;;;4.30;99.90;;;;;;5052325;28;20037;-78
2023/12/12 04:07:38;;;;;;;14.23;5.90;;;4.30;99.90;;;;;;5046390;28;20671;-79
2023/12/12 04:10:05;;;;;;;15.27;4.93;;;4.30;99.90;;;;;;5045704;28;20098;-78
2023/12/12 04:12:30;;;;;;;19.23;6.65;;;4.30;99.90;;;;;;5039154;28;20059;-78
2023/12/12 04:14:56;;;;;;;12.93;6.20;;;4.30;99.90;;;;;;5046476;28;20492;-79
2023/12/12 04:17:25;;;;;;;14.63;6.60;;;4.30;99.90;;;;;;5044158;28;20037;-79
2023/12/12 04:19:50;;;;;;;13.30;6.07;;;4.40;99.90;;;;;;5037573;28;20056;-79
2023/12/12 04:22:16;;;;;;;16.85;6.18;;;4.40;99.90;;;;;;5043833;28;20400;-79
2023/12/12 04:24:41;;;;;;;13.50;5.88;;;4.40;99.90;;;;;;5043017;28;20071;-78
2023/12/12 04:27:07;;;;;;;12.93;6.07;;;4.30;99.90;;;;;;5043849;28;20069;-79
2023/12/12 04:29:33;;;;;;;13.60;5.93;;;4.40;99.90;;;;;;5031463;28;20106;-79
2023/12/12 04:31:59;;;;;;;18.25;7.35;;;4.40;99.90;;;;;;5039372;28;20384;-79
2023/12/12 04:34:24;;;;;;;22.63;7.07;;;4.40;99.90;;;;;;5044616;28;20072;-79
2023/12/12 04:36:50;;;;;;;14.93;6.70;;;4.40;99.90;;;;;;5045757;28;20045;-78
2023/12/12 04:39:17;;;;;;;15.35;6.68;;;4.40;99.90;;;;;;5043588;28;20041;-79
2023/12/12 04:41:44;;;;;;;17.67;7.45;;;4.40;99.90;;;;;;5047699;28;20044;-79
2023/12/12 04:44:09;;;;;;;15.90;7.25;;;4.40;99.90;;;;;;5046392;28;20562;-78
2023/12/12 04:46:35;;;;;;;24.10;8.00;;;4.40;99.90;;;;;;5044815;28;20088;-79
2023/12/12 04:49:02;;;;;;;13.85;7.20;;;4.40;99.90;;;;;;5044703;28;20060;-79
2023/12/12 04:51:28;;;;;;;18.80;7.82;;;4.40;99.90;;;;;;5047840;28;20512;-79
2023/12/12 04:53:54;;;;;;;14.52;7.50;;;4.40;99.90;;;;;;5039429;28;20045;-79
2023/12/12 04:56:20;;;;;;;18.33;7.50;;;4.40;99.90;;;;;;5042021;28;20037;-79
2023/12/12 04:58:46;;;;;;;14.48;6.70;;;4.40;99.90;;;;;;5042710;28;20701;-78
2023/12/12 05:01:14;;;;;;;24.50;7.10;;;4.40;99.90;;;;;;5004758;28;1081551;-79
2023/12/12 05:03:40;;;;;;;14.10;6.88;;;4.40;99.90;;;;;;5046095;28;20059;-79
2023/12/12 05:06:08;;;;;;;9.65;5.00;;;4.40;99.90;;;;;;5048091;28;20041;-78
2023/12/12 05:08:34;;;;;;;24.60;6.60;;;4.30;99.90;;;;;;5045732;28;20542;-79
2023/12/12 05:10:59;;;;;;;51.67;8.27;;;4.30;99.90;;;;;;5049238;28;20059;-79
2023/12/12 05:13:25;;;;;;;27.77;7.53;;;4.30;99.90;;;;;;5050987;28;20464;-79
2023/12/12 05:15:51;;;;;;;14.20;7.68;;;4.30;99.90;;;;;;5048659;28;20048;-79
2023/12/12 05:18:17;;;;;;;16.98;7.90;;;4.30;99.90;;;;;;5052349;28;20044;-79
2023/12/12 05:20:43;;;;;;;20.42;8.63;;;4.30;99.90;;;;;;5067486;28;20124;-79
2023/12/12 05:23:09;;;;;;;20.08;8.60;;;4.30;99.90;;;;;;5051156;28;20482;-79
2023/12/12 05:25:35;;;;;;;21.97;8.93;;;4.40;99.90;;;;;;5048937;28;20036;-79
2023/12/12 05:28:01;;;;;;;20.80;8.40;;;4.40;99.90;;;;;;5048188;28;20040;-78
2023/12/12 05:30:26;;;;;;;22.63;8.18;;;4.40;99.90;;;;;;5051110;28;20049;-78
2023/12/12 05:32:52;;;;;;;16.85;7.82;;;4.40;99.90;;;;;;5050445;28;20033;-79
2023/12/12 05:35:18;;;;;;;16.95;7.20;;;4.40;99.90;;;;;;5037995;28;20044;-78
2023/12/12 05:37:44;;;;;;;17.33;7.55;;;4.50;99.90;;;;;;5050957;28;20296;-78
2023/12/12 05:40:10;;;;;;;16.77;7.25;;;4.50;99.90;;;;;;5052593;28;20053;-78
2023/12/12 05:42:36;;;;;;;14.30;6.95;;;4.50;99.90;;;;;;5059854;28;20044;-77
2023/12/12 05:45:02;;;;;;;11.05;5.82;;;4.60;99.90;;;;;;5051344;28;20052;-78
2023/12/12 05:47:28;;;;;;;15.48;7.60;;;4.60;99.90;;;;;;5043596;28;20103;-78
2023/12/12 05:49:54;;;;;;;18.90;7.63;;;4.70;99.90;;;;;;5040762;28;20617;-78
2023/12/12 05:52:20;;;;;;;14.57;6.88;;;4.70;99.90;;;;;;5040572;28;20256;-78
2023/12/12 05:54:46;;;;;;;16.23;7.68;;;4.70;99.90;;;;;;5049982;28;20524;-77
2023/12/12 05:57:11;;;;;;;21.60;7.47;;;4.80;99.90;;;;;;5049010;28;20064;-77
2023/12/12 05:59:37;;;;;;;17.95;8.02;;;4.80;99.90;;;;;;5047428;28;20041;-77
2023/12/12 06:02:04;;;;;;;17.75;8.02;;;4.90;99.90;;;;;;5043109;28;20295;-77
2023/12/12 06:04:29;;;;;;;18.30;7.17;;;4.90;99.90;;;;;;5044349;28;20044;-77
2023/12/12 06:06:55;;;;;;;18.80;7.95;;;4.90;99.90;;;;;;5042673;28;20102;-78
2023/12/12 06:09:21;;;;;;;17.67;7.43;;;5.00;99.90;;;;;;5044336;28;20147;-77
2023/12/12 06:11:46;;;;;;;22.05;7.65;;;5.00;99.90;;;;;;5043043;28;20044;-77
2023/12/12 06:14:12;;;;;;;18.63;7.55;;;5.10;99.90;;;;;;5046646;28;20641;-78
2023/12/12 06:16:38;;;;;;;17.75;7.97;;;5.10;99.90;;;;;;5047491;28;20083;-78
2023/12/12 06:19:04;;;;;;;14.77;6.97;;;5.10;99.90;;;;;;5040817;28;20048;-78
2023/12/12 06:21:32;;;;;;;18.42;6.97;;;5.20;99.90;;;;;;5046010;28;20048;-78
2023/12/12 06:24:00;;;;;;;20.90;8.02;;;5.20;99.90;;;;;;5060750;28;20076;-77
2023/12/12 06:26:26;;;;;;;14.38;7.45;;;5.30;99.90;;;;;;5041977;28;20048;-76
2023/12/12 06:28:52;;;;;;;23.13;8.45;;;5.30;99.90;;;;;;5033415;28;20049;-76
2023/12/12 06:31:18;;;;;;;17.88;8.98;;;5.30;99.90;;;;;;5039919;28;20388;-76
2023/12/12 06:33:43;;;;;;;28.23;10.43;;;5.30;99.90;;;;;;5042916;28;20061;-76
2023/12/12 06:36:10;;;;;;;17.58;8.65;;;5.40;99.90;;;;;;5041783;28;20761;-77
2023/12/12 06:38:35;;;;;;;20.95;9.50;;;5.40;99.90;;;;;;5039281;28;20063;-76
2023/12/12 06:41:01;;;;;;;22.67;8.02;;;5.40;99.90;;;;;;5042820;28;20041;-76
2023/12/12 06:43:27;;;;;;;22.83;8.48;;;5.50;99.90;;;;;;5035627;28;20055;-76
2023/12/12 06:45:53;;;;;;;24.83;9.60;;;5.50;99.90;;;;;;5043157;28;20049;-76
2023/12/12 06:48:19;;;;;;;17.48;9.05;;;5.50;99.90;;;;;;5041400;28;20044;-76
2023/12/12 06:50:44;;;;;;;26.40;10.15;;;5.50;99.90;;;;;;5041647;28;20744;-76
2023/12/12 06:53:10;;;;;;;25.00;9.73;;;5.60;99.90;;;;;;5039468;28;20048;-76
2023/12/12 06:55:37;;;;;;;18.38;8.50;;;5.60;99.90;;;;;;5037267;28;20512;-77
2023/12/12 06:58:03;;;;;;;;;;;5.60;99.90;;;;;;5076548;28;20061;-77
2023/12/12 07:00:29;;;;;;;24.77;10.60;;;5.60;99.90;;;;;;5029075;28;19936;-77
2023/12/12 07:02:55;;;;;;;28.80;11.82;;;5.60;99.90;;;;;;5035790;28;20059;-77
2023/12/12 07:05:21;;;;;;;25.27;11.52;;;5.70;99.90;;;;;;5042905;28;20124;-77
2023/12/12 07:07:47;;;;;;;23.85;10.48;;;5.70;99.90;;;;;;5036162;28;20041;-77
2023/12/12 07:10:14;;;;;;;22.55;10.43;;;5.70;99.90;;;;;;5032622;28;20034;-77
2023/12/12 07:12:39;;;;;;;27.40;13.07;;;5.70;99.90;;;;;;5038167;28;20062;-77
2023/12/12 07:15:07;;;;;;;31.38;13.13;;;5.70;99.90;;;;;;5042764;28;20036;-77
2023/12/12 07:17:32;;;;;;;28.23;13.02;;;5.70;99.90;;;;;;5033608;28;20056;-77
2023/12/12 07:19:58;;;;;;;27.83;12.48;;;5.70;99.90;;;;;;5038923;28;20064;-77
2023/12/12 07:22:24;;;;;;;28.98;13.48;;;5.80;99.90;;;;;;5042246;28;20132;-77
2023/12/12 07:24:49;;;;;;;26.92;13.68;;;5.80;99.90;;;;;;5034869;28;20033;-77
2023/12/12 07:27:16;;;;;;;29.50;14.63;;;5.70;99.90;;;;;;5032290;28;20516;-77
2023/12/12 07:29:41;;;;;;;29.05;12.88;;;5.80;99.90;;;;;;5030823;28;20163;-77
2023/12/12 07:32:07;;;;;;;25.10;12.40;;;5.80;99.90;;;;;;5048582;28;20128;-78
2023/12/12 07:34:33;;;;;;;27.77;14.35;;;5.80;99.90;;;;;;5046132;28;20190;-77
2023/12/12 07:36:58;;;;;;;26.90;13.95;;;5.80;99.90;;;;;;5039194;28;20196;-77
2023/12/12 07:39:24;;;;;;;31.83;14.98;;;5.80;99.90;;;;;;5033288;28;20049;-77
2023/12/12 07:41:50;;;;;;;30.40;15.35;;;5.70;99.90;;;;;;5036421;28;20191;-77
2023/12/12 07:44:15;;;;;;;27.73;14.00;;;5.70;99.90;;;;;;5030657;28;20095;-78
2023/12/12 07:46:41;;;;;;;33.83;17.15;;;5.80;99.90;;;;;;5035088;28;20045;-77
2023/12/12 07:49:07;;;;;;;30.65;14.40;;;5.70;99.90;;;;;;5043099;28;20060;-77
2023/12/12 07:51:32;;;;;;;27.67;15.60;;;5.70;99.90;;;;;;5043183;28;20485;-78
2023/12/12 07:54:01;;;;;;;24.77;14.02;;;5.70;99.90;;;;;;5046197;28;20051;-76
2023/12/12 07:56:26;;;;;;;26.13;14.70;;;5.70;99.90;;;;;;5040501;28;20041;-76
2023/12/12 07:58:52;;;;;;;31.85;16.02;;;5.70;99.90;;;;;;5042056;28;20081;-77
2023/12/12 08:01:18;;;;;;;28.98;16.48;;;5.70;99.90;;;;;;5042122;28;20147;-77
2023/12/12 08:03:44;;;;;;;27.90;16.92;;;5.70;99.90;;;;;;5047330;28;20061;-77
2023/12/12 08:06:10;;;;;;;29.83;16.38;;;5.70;99.90;;;;;;5048868;28;20403;-78
2023/12/12 08:08:36;;;;;;;36.13;16.55;;;5.70;99.90;;;;;;5047281;28;20107;-77
2023/12/12 08:11:02;;;;;;;33.38;16.25;;;5.70;99.90;;;;;;5036770;28;20029;-77
2023/12/12 08:13:28;;;;;;;34.05;17.05;;;5.70;99.90;;;;;;5041841;28;20485;-78
2023/12/12 08:15:53;;;;;;;33.85;18.20;;;5.70;99.90;;;;;;5044492;28;20045;-79
2023/12/12 08:18:19;;;;;;;35.42;17.55;;;5.70;99.90;;;;;;5049889;28;20041;-77
2023/12/12 08:20:45;;;;;;;35.45;17.80;;;5.70;99.90;;;;;;5043839;28;20487;-77
2023/12/12 08:23:10;;;;;;;39.28;21.02;;;5.70;99.90;;;;;;5039848;28;20093;-75
2023/12/12 08:25:36;;;;;;;36.80;20.60;;;5.70;99.90;;;;;;5045568;28;20069;-78
2023/12/12 08:28:03;;;;;;;33.33;19.55;;;5.70;99.90;;;;;;5050189;28;20029;-75
2023/12/12 08:30:28;;;;;;;31.60;16.70;;;5.70;99.90;;;;;;5047866;28;20121;-76
2023/12/12 08:32:54;;;;;;;28.02;16.20;;;5.60;99.90;;;;;;5051594;28;20138;-76
2023/12/12 08:35:20;;;;;;;31.65;16.73;;;5.70;99.90;;;;;;5045285;28;20061;-78
2023/12/12 08:37:45;;;;;;;26.40;14.07;;;5.70;99.90;;;;;;5046760;28;20052;-78
2023/12/12 08:40:11;;;;;;;26.50;14.18;;;5.70;99.90;;;;;;5048071;28;20063;-79
2023/12/12 08:42:39;;;;;;;26.23;15.23;;;5.70;99.90;;;;;;5048191;28;20161;-79
2023/12/12 08:45:05;;;;;;;27.77;14.80;;;5.70;99.90;;;;;;5050771;28;20133;-80
2023/12/12 08:47:31;;;;;;;26.10;14.80;;;5.70;99.90;;;;;;5048617;28;20036;-77
2023/12/12 08:49:56;;;;;;;27.23;14.40;;;5.70;99.90;;;;;;5047937;28;20613;-76
2023/12/12 08:52:22;;;;;;;25.70;13.95;;;5.70;99.90;;;;;;5044356;28;20032;-81
2023/12/12 08:54:48;;;;;;;28.85;17.40;;;5.70;99.90;;;;;;5045155;28;20152;-80
2023/12/12 08:57:17;;;;;;;32.42;16.27;;;5.70;99.90;;;;;;5072123;28;20086;-81
2023/12/12 08:59:43;;;;;;;30.33;17.17;;;5.70;99.90;;;;;;5046889;28;20049;-79
2023/12/12 09:02:09;;;;;;;37.38;18.23;;;5.70;99.90;;;;;;5043227;28;20127;-77
2023/12/12 09:04:36;;;;;;;40.22;18.98;;;5.70;99.90;;;;;;5041682;28;20053;-77
2023/12/12 09:07:01;;;;;;;34.13;17.95;;;5.80;99.90;;;;;;5046781;28;20048;-76
2023/12/12 09:09:27;;;;;;;39.88;17.52;;;5.80;99.90;;;;;;5052635;28;20040;-76
2023/12/12 09:11:54;;;;;;;37.78;18.48;;;5.80;99.90;;;;;;5048876;28;20048;-77
2023/12/12 09:14:19;;;;;;;41.67;18.30;;;5.90;99.90;;;;;;5042110;28;20527;-77
2023/12/12 09:16:45;;;;;;;59.28;19.08;;;5.80;99.90;;;;;;5041690;28;20136;-77
2023/12/12 09:19:14;;;;;;;46.00;19.38;;;5.90;99.90;;;;;;5044646;28;20045;-77
2023/12/12 09:21:41;;;;;;;50.17;17.30;;;5.90;99.90;;;;;;5047695;28;20037;-77
2023/12/12 09:24:07;;;;;;;55.50;16.37;;;5.90;99.90;;;;;;5076942;28;20134;-79
2023/12/12 09:26:32;;;;;;;44.00;17.88;;;5.90;99.90;;;;;;5043826;28;20084;-76
2023/12/12 09:28:58;;;;;;;55.45;16.50;;;5.90;99.90;;;;;;5037687;28;20049;-79
2023/12/12 09:31:26;;;;;;;42.78;17.75;;;5.90;99.90;;;;;;5033978;28;20037;-79
2023/12/12 09:33:52;;;;;;;53.58;19.15;;;5.70;99.90;;;;;;5048813;28;20079;-80
2023/12/12 09:36:18;;;;;;;36.55;15.23;;;5.80;99.90;;;;;;5049804;28;20059;-79
2023/12/12 09:38:44;;;;;;;48.60;17.58;;;5.80;99.90;;;;;;5043206;28;20128;-80
2023/12/12 09:41:22;;;;;;;45.42;18.52;;;5.80;99.90;;;;;;5048466;28;20167;-79
2023/12/12 09:43:50;;;;;;;43.90;18.10;;;5.80;99.90;;;;;;5045030;28;20396;-79
2023/12/12 09:46:17;;;;;;;26.42;15.52;;;5.80;99.90;;;;;;5038562;28;20141;-80
2023/12/12 09:48:47;;;;;;;37.58;16.38;;;5.80;99.90;;;;;;5045094;28;20041;-77
2023/12/12 09:51:17;;;;;;;60.17;16.98;;;5.90;99.90;;;;;;5050157;28;20045;-82
2023/12/12 09:53:46;;;;;;;40.05;16.60;;;5.90;99.90;;;;;;5047766;28;20049;-79
2023/12/12 09:56:17;;;;;;;28.52;14.68;;;5.90;99.90;;;;;;5047334;28;20132;-78
2023/12/12 09:58:48;;;;;;;47.63;15.98;;;6.00;99.90;;;;;;5075792;28;20103;-79
2023/12/12 10:01:15;;;;;;;35.08;16.60;;;6.00;99.90;;;;;;5047729;28;20063;-79
2023/12/12 10:03:41;;;;;;;27.48;14.52;;;6.00;99.90;;;;;;5046522;28;20049;-80
2023/12/12 10:06:13;;;;;;;32.08;14.93;;;6.00;99.90;;;;;;5045050;28;20043;-80
2023/12/12 10:08:40;;;;;;;33.28;14.80;;;6.00;99.90;;;;;;5046814;28;20049;-80
2023/12/12 10:11:06;;;;;;;35.80;14.02;;;6.00;99.90;;;;;;5048179;28;20157;-80
2023/12/12 10:13:56;;;;;;;46.45;13.98;;;6.10;99.90;;;;;;5046656;28;20037;-80
2023/12/12 10:16:25;;;;;;;27.65;14.52;;;6.10;99.90;;;;;;5046020;28;20123;-80
2023/12/12 10:18:52;;;;;;;60.72;16.52;;;6.10;99.90;;;;;;5047378;28;20063;-80
2023/12/12 10:21:19;;;;;;;41.80;15.30;;;6.10;99.90;;;;;;5046663;28;20447;-80
2023/12/12 10:23:52;;;;;;;42.83;14.07;;;6.10;99.90;;;;;;5046103;28;20048;-80
2023/12/12 10:26:32;;;;;;;30.02;14.15;;;6.20;99.90;;;;;;5042843;28;20033;-78
2023/12/12 10:28:59;;;;;;;24.88;12.45;;;6.20;99.90;;;;;;5047173;28;20128;-80
2023/12/12 10:31:25;;;;;;;31.40;14.27;;;6.20;99.90;;;;;;5040918;28;20049;-80
2023/12/12 10:33:51;;;;;;;35.20;15.75;;;6.30;99.90;;;;;;5040111;28;20155;-78
2023/12/12 10:36:17;;;;;;;30.20;14.68;;;6.30;99.90;;;;;;5049806;28;20050;-77
2023/12/12 10:38:44;;;;;;;42.65;15.27;;;6.40;99.90;;;;;;5053921;28;20053;-78
2023/12/12 10:41:18;;;;;;;34.05;15.25;;;6.40;99.90;;;;;;5047087;28;20052;-76
2023/12/12 10:43:46;;;;;;;31.83;15.93;;;6.40;99.90;;;;;;5043284;28;20068;-76
2023/12/12 10:46:14;;;;;;;36.80;16.67;;;6.40;99.90;;;;;;5046586;28;20445;-76
2023/12/12 10:48:43;;;;;;;33.67;15.40;;;6.40;99.90;;;;;;5048689;28;20076;-76
2023/12/12 10:51:14;;;;;;;35.53;14.13;;;6.40;99.90;;;;;;5046822;28;20041;-77
2023/12/12 10:53:41;;;;;;;29.50;14.93;;;6.40;99.90;;;;;;5046391;28;20481;-76
2023/12/12 10:56:08;;;;;;;29.15;15.48;;;6.40;99.90;;;;;;5046604;28;20045;-76
2023/12/12 10:58:36;;;;;;;39.75;16.13;;;6.40;99.90;;;;;;5048876;28;20421;-76
2023/12/12 11:01:02;;;;;;;32.00;15.35;;;6.50;99.90;;;;;;5043043;28;20496;-80
2023/12/12 11:03:30;;;;;;;31.02;16.10;;;6.50;99.90;;;;;;5041055;28;20045;-76
2023/12/12 11:05:57;;;;;;;28.92;15.00;;;6.50;99.90;;;;;;5042413;28;20116;-76
2023/12/12 11:08:23;;;;;;;;;;;6.50;99.90;;;;;;5045488;28;20120;-80
2023/12/12 11:10:53;;;;;;;31.52;16.30;;;6.60;99.90;;;;;;5075632;28;19920;-81
2023/12/12 11:13:22;;;;;;;29.58;15.68;;;6.60;99.90;;;;;;5045976;28;20043;-81
2023/12/12 11:15:49;;;;;;;32.58;16.58;;;6.60;99.90;;;;;;5045148;28;20044;-77
2023/12/12 11:18:15;;;;;;;38.40;16.07;;;6.60;99.90;;;;;;5042676;28;20057;-75
2023/12/12 11:20:41;;;;;;;30.10;15.15;;;6.60;99.90;;;;;;5039987;28;20314;-78
2023/12/12 11:23:07;;;;;;;29.65;15.32;;;6.70;99.90;;;;;;5044083;28;20048;-79
2023/12/12 11:25:37;;;;;;;42.05;17.17;;;6.70;99.90;;;;;;5044393;28;20045;-77
2023/12/12 11:28:03;;;;;;;31.20;16.45;;;6.70;99.90;;;;;;5047128;28;20073;-76
2023/12/12 11:30:33;;;;;;;35.88;16.17;;;6.70;99.90;;;;;;5047959;28;20037;-77
2023/12/12 11:33:00;;;;;;;35.78;17.95;;;6.70;99.90;;;;;;5048424;28;20044;-77
2023/12/12 11:35:32;;;;;;;41.47;18.20;;;6.80;99.90;;;;;;5046814;28;20606;-77
2023/12/12 11:38:06;;;;;;;38.53;18.88;;;6.80;99.90;;;;;;5038027;28;20547;-77
2023/12/12 11:40:33;;;;;;;39.50;19.05;;;6.80;99.90;;;;;;5046784;28;20041;-77
2023/12/12 11:43:24;;;;;;;42.30;19.08;;;6.80;99.90;;;;;;5044938;28;20716;-77
2023/12/12 11:45:50;;;;;;;47.58;20.10;;;6.90;99.90;;;;;;5047155;28;20120;-77
2023/12/12 11:48:16;;;;;;;43.95;20.30;;;6.90;99.90;;;;;;5046222;28;20120;-76
2023/12/12 11:50:42;;;;;;;50.40;22.42;;;6.90;99.90;;;;;;5046171;28;20056;-77
2023/12/12 11:53:08;;;;;;;52.75;22.98;;;6.90;99.90;;;;;;5046989;28;20029;-77
2023/12/12 11:55:36;;;;;;;57.05;22.02;;;7.00;99.90;;;;;;5044009;28;20444;-77
2023/12/12 11:58:04;;;;;;;54.88;22.77;;;7.00;99.90;;;;;;5044303;28;20536;-77
2023/12/12 12:00:34;;;;;;;68.72;27.38;;;7.00;99.90;;;;;;5047740;28;20408;-77
2023/12/12 12:03:01;;;;;;;66.05;24.08;;;7.00;99.90;;;;;;5048276;28;20056;-77
2023/12/12 12:05:27;;;;;;;56.55;23.63;;;7.10;99.90;;;;;;5045514;28;20059;-77
2023/12/12 12:07:53;;;;;;;68.43;25.50;;;7.10;99.90;;;;;;5046257;28;20120;-77
2023/12/12 12:10:19;;;;;;;92.35;26.23;;;7.10;99.90;;;;;;5047135;28;20048;-78
2023/12/12 12:12:52;;;;;;;70.35;26.33;;;7.10;99.90;;;;;;5042290;28;20662;-77
2023/12/12 12:15:17;;;;;;;65.00;25.08;;;7.20;99.90;;;;;;5046338;28;20550;-77
2023/12/12 12:17:43;;;;;;;59.70;22.88;;;7.20;99.90;;;;;;5046372;28;20037;-77
2023/12/12 12:20:09;;;;;;;62.42;24.83;;;7.20;99.90;;;;;;5046577;28;20115;-77
2023/12/12 12:22:38;;;;;;;65.80;25.80;;;7.30;99.90;;;;;;5046793;28;20957;-77
2023/12/12 12:25:05;;;;;;;62.67;23.08;;;7.30;99.90;;;;;;5042677;28;20057;-79
2023/12/12 12:27:48;;;;;;;66.80;24.52;;;7.30;99.90;;;;;;5042532;28;20045;-77
2023/12/12 12:30:13;;;;;;;50.03;20.85;;;7.40;99.90;;;;;;5040807;28;20052;-76
2023/12/12 12:32:39;;;;;;;55.35;21.65;;;7.40;99.90;;;;;;5043427;28;20045;-73
2023/12/12 12:35:05;;;;;;;57.90;20.40;;;7.40;99.90;;;;;;5044395;28;20064;-79
2023/12/12 12:37:31;;;;;;;51.85;21.85;;;7.50;99.90;;;;;;5044794;28;20041;-78
2023/12/12 12:39:57;;;;;;;50.20;20.73;;;7.50;99.90;;;;;;5046751;28;20048;-79
2023/12/12 12:42:34;;;;;;;52.80;22.45;;;7.50;99.90;;;;;;5047507;28;20047;-79